createdAt,value
2022-08-28T00:00:59.807Z,94546.88
2022-08-28T00:03:26.612Z,94556.31
2022-08-28T00:05:53.844Z,94547.94
2022-08-28T00:08:21.289Z,94548.13
2022-08-28T00:10:48.473Z,94560.59
2022-08-28T00:13:19.935Z,94559.56
2022-08-28T00:15:50.145Z,94555.69
2022-08-28T00:18:17.995Z,94560.03
2022-08-28T00:20:46.486Z,94556.38
2022-08-28T00:23:14.124Z,94543.31
2022-08-28T00:25:40.986Z,94545.72
2022-08-28T00:28:24.011Z,94545.72
2022-08-28T00:30:58.719Z,94547.78
2022-08-28T00:33:33.189Z,94552.69
2022-08-28T00:36:01.588Z,94542.47
2022-08-28T00:38:29.926Z,94546.94
2022-08-28T00:41:04.022Z,94538.34
2022-08-28T00:43:43.040Z,94539.34
2022-08-28T00:46:17.776Z,94532.19
2022-08-28T00:48:44.644Z,94533.84
2022-08-28T00:51:32.020Z,94538.53
2022-08-28T00:54:01.371Z,94536.34
2022-08-28T00:56:32.705Z,94522.06
2022-08-28T00:59:06.990Z,94537.53
2022-08-28T01:01:33.868Z,94540.03
2022-08-28T01:04:02.401Z,94539.59
2022-08-28T01:06:29.284Z,94534.28
2022-08-28T01:08:56.420Z,94536.41
2022-08-28T01:11:26.145Z,94544.16
2022-08-28T01:13:54.650Z,94540.91
2022-08-28T01:16:23.146Z,94544.97
2022-08-28T01:19:00.534Z,94542.06
2022-08-28T01:21:40.626Z,94542.91
2022-08-28T01:24:12.102Z,94540.00
2022-08-28T01:26:39.105Z,94538.72
2022-08-28T01:29:08.590Z,94538.16
2022-08-28T01:31:37.909Z,94538.53
2022-08-28T01:34:06.437Z,94540.16
2022-08-28T01:36:33.946Z,94526.97
2022-08-28T01:39:13.181Z,94533.47
2022-08-28T01:41:46.978Z,94540.00
2022-08-28T01:44:19.446Z,94532.03
2022-08-28T01:46:46.977Z,94541.84
2022-08-28T01:49:14.679Z,94530.63
2022-08-28T01:51:42.459Z,94540.41
2022-08-28T01:54:10.356Z,94536.34
2022-08-28T01:56:41.026Z,94538.34
2022-08-28T01:59:11.820Z,94534.50
2022-08-28T02:01:40.179Z,94538.53
2022-08-28T02:04:07.073Z,94530.97
2022-08-28T02:06:34.224Z,94527.31
2022-08-28T02:09:01.268Z,94525.50
2022-08-28T02:11:32.872Z,94527.72
2022-08-28T02:14:01.840Z,94537.16
2022-08-28T02:16:29.022Z,94523.25
2022-08-28T02:18:55.913Z,94532.63
2022-08-28T02:21:23.315Z,94525.25
2022-08-28T02:23:50.122Z,94524.25
2022-08-28T02:26:17.581Z,94531.84
2022-08-28T02:28:44.466Z,94521.66
2022-08-28T02:31:12.074Z,94519.34
2022-08-28T02:33:43.619Z,94525.44
2022-08-28T02:36:13.756Z,94529.91
2022-08-28T02:38:41.351Z,94535.88
2022-08-28T02:41:09.081Z,94535.09
2022-08-28T02:43:36.112Z,94526.28
2022-08-28T02:46:05.177Z,94529.75
2022-08-28T02:48:35.799Z,94534.63
2022-08-28T02:51:07.057Z,94539.16
2022-08-28T02:53:34.137Z,94536.75
2022-08-28T02:56:03.056Z,94535.75
2022-08-28T02:58:32.906Z,94525.78
2022-08-28T03:01:01.811Z,94531.81
2022-08-28T03:03:31.318Z,94531.59
2022-08-28T03:06:00.794Z,94530.38
2022-08-28T03:08:28.748Z,94521.59
2022-08-28T03:10:55.990Z,94527.72
2022-08-28T03:13:27.236Z,94522.84
2022-08-28T03:15:55.817Z,94526.03
2022-08-28T03:18:25.632Z,94527.44
2022-08-28T03:20:55.616Z,94533.16
2022-08-28T03:23:30.251Z,94527.84
2022-08-28T03:26:07.278Z,94527.19
2022-08-28T03:28:42.031Z,94512.16
2022-08-28T03:31:18.105Z,94517.06
2022-08-28T03:33:47.270Z,94528.09
2022-08-28T03:36:19.472Z,94531.34
2022-08-28T03:38:46.241Z,94521.94
2022-08-28T03:41:17.147Z,94530.38
2022-08-28T03:43:44.314Z,94516.72
2022-08-28T03:46:23.965Z,94533.84
2022-08-28T03:48:52.823Z,94536.22
2022-08-28T03:51:29.619Z,94534.38
2022-08-28T03:54:01.076Z,94538.03
2022-08-28T03:56:30.374Z,94534.50
2022-08-28T03:59:03.498Z,94524.72
2022-08-28T04:01:30.502Z,94513.09
2022-08-28T04:03:57.589Z,94526.31
2022-08-28T04:06:25.039Z,94523.75
2022-08-28T04:08:51.993Z,94521.22
2022-08-28T04:11:18.777Z,94541.47
2022-08-28T04:13:45.705Z,94533.66
2022-08-28T04:16:16.797Z,94540.63
2022-08-28T04:18:44.310Z,94531.59
2022-08-28T04:21:18.213Z,94539.41
2022-08-28T04:23:47.646Z,94536.16
2022-08-28T04:26:19.547Z,94538.22
2022-08-28T04:28:47.917Z,94545.19
2022-08-28T04:31:16.111Z,94542.75
2022-08-28T04:33:43.534Z,94534.97
2022-08-28T04:36:17.037Z,94536.53
2022-08-28T04:38:44.566Z,94533.22
2022-08-28T04:41:15.145Z,94532.44
2022-08-28T04:43:43.105Z,94540.56
2022-08-28T04:46:14.630Z,94534.00
2022-08-28T04:48:42.593Z,94537.75
2022-08-28T04:51:12.274Z,94545.34
2022-08-28T04:53:39.624Z,94539.06
2022-08-28T04:56:09.885Z,94535.03
2022-08-28T04:58:37.665Z,94541.28
2022-08-28T05:01:19.169Z,94537.00
2022-08-28T05:03:48.015Z,94544.09
2022-08-28T05:06:16.562Z,94545.19
2022-08-28T05:08:43.950Z,94547.66
2022-08-28T05:11:32.749Z,94546.81
2022-08-28T05:14:05.088Z,94558.91
2022-08-28T05:16:34.100Z,94560.69
2022-08-28T05:19:02.275Z,94558.59
2022-08-28T05:21:29.211Z,94550.00
2022-08-28T05:23:57.673Z,94557.72
2022-08-28T05:26:26.745Z,94555.66
2022-08-28T05:28:56.365Z,94562.19
2022-08-28T05:31:25.778Z,94561.38
2022-08-28T05:33:53.778Z,94558.91
2022-08-28T05:36:25.876Z,94567.22
2022-08-28T05:39:01.991Z,94554.31
2022-08-28T05:41:30.969Z,94567.72
2022-08-28T05:44:04.165Z,94564.78
2022-08-28T05:46:31.615Z,94573.59
2022-08-28T05:49:00.321Z,94566.69
2022-08-28T05:51:28.211Z,94579.66
2022-08-28T05:53:57.691Z,94580.44
2022-08-28T05:56:32.899Z,94576.31
2022-08-28T05:59:01.949Z,94586.25
2022-08-28T06:01:31.997Z,94583.53
2022-08-28T06:04:08.698Z,94575.69
2022-08-28T06:06:38.381Z,94579.34
2022-08-28T06:09:12.972Z,94591.94
2022-08-28T06:11:42.216Z,94590.28
2022-08-28T06:14:15.731Z,94588.38
2022-08-28T06:16:47.717Z,94591.19
2022-08-28T06:19:14.978Z,94592.06
2022-08-28T06:21:42.129Z,94586.44
2022-08-28T06:24:11.387Z,94598.16
2022-08-28T06:26:38.238Z,94599.34
2022-08-28T06:29:13.128Z,94596.50
2022-08-28T06:31:40.282Z,94599.03
2022-08-28T06:34:09.019Z,94602.31
2022-08-28T06:36:40.384Z,94603.59
2022-08-28T06:39:08.761Z,94604.88
2022-08-28T06:41:41.111Z,94599.06
2022-08-28T06:44:09.525Z,94597.78
2022-08-28T06:46:37.017Z,94604.97
2022-08-28T06:49:07.727Z,94610.44
2022-08-28T06:51:35.843Z,94600.38
2022-08-28T06:54:03.761Z,94605.91
2022-08-28T06:56:31.305Z,94601.34
2022-08-28T06:59:00.467Z,94605.56
2022-08-28T07:01:33.010Z,94601.63
2022-08-28T07:04:05.230Z,94605.63
2022-08-28T07:06:35.809Z,94604.19
2022-08-28T07:09:05.606Z,94611.63
2022-08-28T07:11:36.368Z,94615.59
2022-08-28T07:14:04.291Z,94611.53
2022-08-28T07:16:38.290Z,94616.03
2022-08-28T07:19:11.350Z,94614.16
2022-08-28T07:21:42.347Z,94626.94
2022-08-28T07:24:12.451Z,94619.78
2022-08-28T07:26:41.965Z,94623.31
2022-08-28T07:29:11.067Z,94616.19
2022-08-28T07:31:43.053Z,94626.31
2022-08-28T07:34:11.976Z,94628.78
2022-08-28T07:36:39.411Z,94629.38
2022-08-28T07:39:07.372Z,94625.22
2022-08-28T07:41:39.266Z,94633.94
2022-08-28T07:44:27.157Z,94629.88
2022-08-28T07:47:02.367Z,94627.56
2022-08-28T07:49:29.219Z,94635.59
2022-08-28T07:51:56.157Z,94627.72
2022-08-28T07:54:23.943Z,94641.22
2022-08-28T07:56:51.840Z,94646.28
2022-08-28T07:59:19.639Z,94643.03
2022-08-28T08:01:48.939Z,94639.22
2022-08-28T08:04:16.862Z,94641.66
2022-08-28T08:06:45.452Z,94652.00
2022-08-28T08:09:15.757Z,94650.28
2022-08-28T08:11:42.822Z,94650.50
2022-08-28T08:14:10.199Z,94651.78
2022-08-28T08:16:41.505Z,94657.69
2022-08-28T08:19:14.693Z,94656.97
2022-08-28T08:21:45.954Z,94654.78
2022-08-28T08:24:19.832Z,94657.69
2022-08-28T08:26:59.846Z,94663.97
2022-08-28T08:29:31.795Z,94660.22
2022-08-28T08:32:05.573Z,94666.88
2022-08-28T08:34:36.714Z,94670.50
2022-08-28T08:37:03.776Z,94657.09
2022-08-28T08:39:31.801Z,94669.50
2022-08-28T08:42:01.322Z,94665.66
2022-08-28T08:44:42.930Z,94673.03
2022-08-28T08:47:35.877Z,94672.16
2022-08-28T08:50:17.912Z,94672.16
2022-08-28T08:52:50.602Z,94674.00
2022-08-28T08:55:27.622Z,94681.63
2022-08-28T08:58:33.197Z,94679.75
2022-08-28T09:01:34.288Z,94672.94
2022-08-28T09:04:30.584Z,94683.50
2022-08-28T09:07:08.604Z,94680.22
2022-08-28T09:09:57.721Z,94686.50
2022-08-28T09:12:37.610Z,94684.00
2022-08-28T09:15:23.620Z,94683.03
2022-08-28T09:17:58.158Z,94684.56
2022-08-28T09:20:33.120Z,94688.47
2022-08-28T09:23:02.112Z,94673.19
2022-08-28T09:26:01.896Z,94680.72
2022-08-28T09:28:34.451Z,94678.88
2022-08-28T09:31:09.332Z,94680.59
2022-08-28T09:33:48.358Z,94685.28
2022-08-28T09:36:34.228Z,94688.09
2022-08-28T09:39:19.505Z,94680.09
2022-08-28T09:42:35.316Z,94680.25
2022-08-28T09:45:21.432Z,94682.44
2022-08-28T09:48:00.668Z,94684.88
2022-08-28T09:50:39.094Z,94683.75
2022-08-28T09:53:11.911Z,94693.06
2022-08-28T09:56:02.574Z,94688.78
2022-08-28T09:58:38.057Z,94681.84
2022-08-28T10:01:30.401Z,94686.22
2022-08-28T10:04:26.276Z,94689.47
2022-08-28T10:07:09.615Z,94695.19
2022-08-28T10:10:32.727Z,94694.44
2022-08-28T10:13:14.921Z,94687.84
2022-08-28T10:16:12.002Z,94688.78
2022-08-28T10:19:13.686Z,94689.81
2022-08-28T10:21:51.194Z,94692.09
2022-08-28T10:24:37.226Z,94683.03
2022-08-28T10:27:25.844Z,94688.69
2022-08-28T10:30:12.386Z,94688.63
2022-08-28T10:33:11.486Z,94690.91
2022-08-28T10:35:52.819Z,94683.31
2022-08-28T10:38:38.109Z,94684.41
2022-08-28T10:41:37.134Z,94676.91
2022-08-28T10:44:05.410Z,94680.66
2022-08-28T10:46:46.735Z,94673.84
2022-08-28T10:49:41.725Z,94683.66
2022-08-28T10:52:31.497Z,94683.50
2022-08-28T10:55:34.614Z,94684.34
2022-08-28T10:58:24.506Z,94683.75
2022-08-28T11:01:13.879Z,94686.28
2022-08-28T11:03:46.852Z,94686.94
2022-08-28T11:06:34.616Z,94686.22
2022-08-28T11:09:25.995Z,94675.22
2022-08-28T11:12:02.254Z,94686.69
2022-08-28T11:14:33.881Z,94686.06
2022-08-28T11:17:09.562Z,94684.66
2022-08-28T11:20:07.586Z,94684.41
2022-08-28T11:22:44.722Z,94668.88
2022-08-28T11:25:26.465Z,94680.69
2022-08-28T11:28:27.265Z,94684.09
2022-08-28T11:31:06.152Z,94680.47
2022-08-28T11:33:50.477Z,94683.16
2022-08-28T11:36:23.069Z,94693.22
2022-08-28T11:38:53.214Z,94696.59
2022-08-28T11:41:36.703Z,94694.38
2022-08-28T11:44:15.116Z,94702.56
2022-08-28T11:46:50.400Z,94699.34
2022-08-28T11:49:32.141Z,94698.66
2022-08-28T11:52:30.245Z,94699.78
2022-08-28T11:55:15.458Z,94696.69
2022-08-28T12:00:46.519Z,94712.84
2022-08-28T12:03:36.702Z,94700.06
2022-08-28T12:06:04.733Z,94705.19
2022-08-28T12:08:58.820Z,94698.16
2022-08-28T12:11:40.922Z,94693.50
2022-08-28T12:14:12.803Z,94680.03
2022-08-28T12:17:14.948Z,94693.44
2022-08-28T12:19:49.969Z,94695.09
2022-08-28T12:22:45.485Z,94692.78
2022-08-28T12:25:34.277Z,94694.81
2022-08-28T12:28:26.805Z,94684.41
2022-08-28T12:31:14.095Z,94690.94
2022-08-28T12:34:01.297Z,94687.03
2022-08-28T12:36:28.860Z,94689.75
2022-08-28T12:39:00.544Z,94689.91
2022-08-28T12:41:28.080Z,94696.94
2022-08-28T12:43:58.688Z,94669.41
2022-08-28T12:46:37.552Z,94684.53
2022-08-28T12:49:26.566Z,94691.50
2022-08-28T12:52:20.293Z,94682.97
2022-08-28T12:54:50.458Z,94680.97
2022-08-28T12:57:21.892Z,94673.84
2022-08-28T12:59:55.222Z,94689.38
2022-08-28T13:02:34.072Z,94680.28
2022-08-28T13:05:10.329Z,94673.56
2022-08-28T13:07:47.805Z,94679.03
2022-08-28T13:10:27.250Z,94679.53
2022-08-28T13:13:04.803Z,94677.66
2022-08-28T13:15:50.837Z,94676.03
2022-08-28T13:18:41.528Z,94669.84
2022-08-28T13:21:33.507Z,94678.41
2022-08-28T13:24:20.594Z,94675.97
2022-08-28T13:26:49.065Z,94673.28
2022-08-28T13:29:21.636Z,94674.63
2022-08-28T13:32:06.268Z,94667.06
2022-08-28T13:34:36.715Z,94673.19
2022-08-28T13:37:20.310Z,94667.50
2022-08-28T13:39:47.716Z,94674.75
2022-08-28T13:42:16.545Z,94661.50
2022-08-28T13:44:50.874Z,94658.25
2022-08-28T13:47:17.859Z,94670.59
2022-08-28T13:49:45.003Z,94674.25
2022-08-28T13:52:12.670Z,94669.53
2022-08-28T13:54:43.652Z,94671.31
2022-08-28T13:57:13.664Z,94674.63
2022-08-28T13:59:41.501Z,94662.53
2022-08-28T14:02:32.185Z,94662.81
2022-08-28T14:04:59.358Z,94667.38
2022-08-28T14:07:26.164Z,94649.28
2022-08-28T14:09:56.210Z,94666.53
2022-08-28T14:12:28.621Z,94662.78
2022-08-28T14:15:00.106Z,94657.91
2022-08-28T14:17:26.920Z,94668.22
2022-08-28T14:19:53.723Z,94661.16
2022-08-28T14:22:20.510Z,94661.91
2022-08-28T14:24:47.249Z,94644.94
2022-08-28T14:27:14.089Z,94649.81
2022-08-28T14:29:40.952Z,94641.72
2022-08-28T14:32:07.976Z,94647.94
2022-08-28T14:34:34.989Z,94654.97
2022-08-28T14:37:02.005Z,94663.06
2022-08-28T14:39:29.068Z,94654.97
2022-08-28T14:41:55.860Z,94650.16
2022-08-28T14:44:24.368Z,94647.44
2022-08-28T14:46:56.902Z,94649.28
2022-08-28T14:49:24.535Z,94641.47
2022-08-28T14:51:52.091Z,94644.06
2022-08-28T14:54:22.831Z,94645.66
2022-08-28T14:56:50.088Z,94648.59
2022-08-28T14:59:24.784Z,94653.47
2022-08-28T15:01:53.699Z,94653.38
2022-08-28T15:04:23.615Z,94656.56
2022-08-28T15:06:57.027Z,94656.44
2022-08-28T15:09:24.514Z,94653.28
2022-08-28T15:11:51.510Z,94647.09
2022-08-28T15:14:18.277Z,94642.56
2022-08-28T15:16:48.223Z,94644.94
2022-08-28T15:19:18.119Z,94654.53
2022-08-28T15:21:51.198Z,94643.03
2022-08-28T15:24:21.200Z,94643.69
2022-08-28T15:26:48.514Z,94637.44
2022-08-28T15:29:15.454Z,94632.03
2022-08-28T15:31:45.924Z,94637.38
2022-08-28T15:34:21.062Z,94650.13
2022-08-28T15:36:55.095Z,94638.66
2022-08-28T15:39:46.046Z,94640.00
2022-08-28T15:42:13.156Z,94644.44
2022-08-28T15:44:40.412Z,94649.56
2022-08-28T15:47:07.656Z,94639.34
2022-08-28T15:49:43.416Z,94647.97
2022-08-28T15:52:15.933Z,94645.25
2022-08-28T15:54:43.015Z,94642.88
2022-08-28T15:57:09.878Z,94642.31
2022-08-28T15:59:38.053Z,94639.06
2022-08-28T16:02:16.610Z,94641.19
2022-08-28T16:04:43.509Z,94639.03
2022-08-28T16:07:11.208Z,94640.31
2022-08-28T16:09:38.046Z,94635.63
2022-08-28T16:12:05.464Z,94643.16
2022-08-28T16:14:33.745Z,94640.44
2022-08-28T16:17:05.733Z,94636.41
2022-08-28T16:19:38.766Z,94652.75
2022-08-28T16:22:05.603Z,94648.97
2022-08-28T16:24:32.394Z,94645.13
2022-08-28T16:26:59.306Z,94643.22
2022-08-28T16:29:26.424Z,94654.06
2022-08-28T16:31:53.406Z,94647.44
2022-08-28T16:34:20.440Z,94651.91
2022-08-28T16:36:48.353Z,94665.38
2022-08-28T16:39:15.398Z,94655.59
2022-08-28T16:41:46.310Z,94660.66
2022-08-28T16:44:13.100Z,94650.63
2022-08-28T16:46:42.722Z,94646.81
2022-08-28T16:49:11.046Z,94652.19
2022-08-28T16:51:38.590Z,94654.88
2022-08-28T16:54:05.610Z,94664.50
2022-08-28T16:56:32.802Z,94650.88
2022-08-28T16:58:59.846Z,94660.75
2022-08-28T17:01:26.945Z,94654.53
2022-08-28T17:03:54.782Z,94662.47
2022-08-28T17:06:29.198Z,94668.75
2022-08-28T17:08:57.431Z,94674.09
2022-08-28T17:11:28.316Z,94663.59
2022-08-28T17:13:56.059Z,94665.97
2022-08-28T17:16:25.624Z,94667.31
2022-08-28T17:18:53.030Z,94666.19
2022-08-28T17:21:40.261Z,94668.00
2022-08-28T17:24:08.832Z,94673.38
2022-08-28T17:26:35.653Z,94669.75
2022-08-28T17:29:02.991Z,94679.59
2022-08-28T17:31:30.140Z,94673.50
2022-08-28T17:33:57.267Z,94676.63
2022-08-28T17:36:33.737Z,94674.94
2022-08-28T17:39:03.250Z,94674.72
2022-08-28T17:41:30.080Z,94686.19
2022-08-28T17:43:56.994Z,94682.34
2022-08-28T17:46:23.838Z,94686.75
2022-08-28T17:48:55.817Z,94701.56
2022-08-28T17:51:42.589Z,94691.13
2022-08-28T17:54:21.434Z,94688.06
2022-08-28T17:56:49.568Z,94701.03
2022-08-28T17:59:16.533Z,94698.59
2022-08-28T18:01:45.558Z,94708.66
2022-08-28T18:04:17.885Z,94704.38
2022-08-28T18:06:47.052Z,94688.72
2022-08-28T18:09:14.618Z,94700.88
2022-08-28T18:11:42.503Z,94699.03
2022-08-28T18:14:09.682Z,94701.38
2022-08-28T18:16:38.168Z,94705.38
2022-08-28T18:19:08.446Z,94705.28
2022-08-28T18:21:36.966Z,94709.44
2022-08-28T18:24:04.189Z,94709.19
2022-08-28T18:26:31.382Z,94705.72
2022-08-28T18:28:58.341Z,94723.19
2022-08-28T18:31:25.878Z,94721.91
2022-08-28T18:33:54.372Z,94720.84
2022-08-28T18:36:23.206Z,94731.28
2022-08-28T18:38:51.174Z,94736.84
2022-08-28T18:41:21.952Z,94734.84
2022-08-28T18:43:57.668Z,94751.66
2022-08-28T18:46:31.222Z,94730.31
2022-08-28T18:48:59.166Z,94744.34
2022-08-28T18:51:26.337Z,94758.97
2022-08-28T18:53:53.162Z,94748.47
2022-08-28T18:56:19.975Z,94763.09
2022-08-28T18:58:47.946Z,94755.41
2022-08-28T19:01:16.013Z,94761.63
2022-08-28T19:03:42.917Z,94782.16
2022-08-28T19:06:13.795Z,94772.47
2022-08-28T19:08:41.187Z,94768.97
2022-08-28T19:11:13.185Z,94773.66
2022-08-28T19:13:41.767Z,94771.97
2022-08-28T19:16:10.065Z,94769.81
2022-08-28T19:18:36.853Z,94775.03
2022-08-28T19:21:19.759Z,94778.97
2022-08-28T19:23:55.316Z,94783.69
2022-08-28T19:26:27.562Z,94776.41
2022-08-28T19:28:55.435Z,94788.28
2022-08-28T19:31:23.609Z,94789.91
2022-08-28T19:33:50.806Z,94786.25
2022-08-28T19:36:18.743Z,94785.69
2022-08-28T19:38:45.848Z,94790.22
2022-08-28T19:41:14.532Z,94792.28
2022-08-28T19:43:43.140Z,94786.44
2022-08-28T19:46:18.730Z,94798.88
2022-08-28T19:48:48.061Z,94792.34
2022-08-28T19:51:17.515Z,94792.19
2022-08-28T19:53:44.977Z,94802.88
2022-08-28T19:56:13.576Z,94801.28
2022-08-28T19:58:40.409Z,94805.81
2022-08-28T20:01:07.283Z,94816.78
2022-08-28T20:03:34.728Z,94803.50
2022-08-28T20:06:03.951Z,94810.03
2022-08-28T20:08:30.845Z,94810.91
2022-08-28T20:10:57.976Z,94816.03
2022-08-28T20:13:25.318Z,94828.38
2022-08-28T20:15:55.411Z,94831.28
2022-08-28T20:18:22.739Z,94820.47
2022-08-28T20:20:51.461Z,94823.56
2022-08-28T20:23:19.681Z,94825.84
2022-08-28T20:25:51.329Z,94833.63
2022-08-28T20:28:19.297Z,94825.03
2022-08-28T20:30:47.044Z,94831.56
2022-08-28T20:33:14.599Z,94836.06
2022-08-28T20:35:42.734Z,94821.38
2022-08-28T20:38:11.387Z,94827.72
2022-08-28T20:40:38.309Z,94827.72
2022-08-28T20:43:06.678Z,94836.69
2022-08-28T20:45:33.762Z,94835.69
2022-08-28T20:48:00.978Z,94834.91
2022-08-28T20:50:27.800Z,94832.44
2022-08-28T20:52:54.686Z,94820.59
2022-08-28T20:55:21.564Z,94832.63
2022-08-28T20:57:48.469Z,94838.56
2022-08-28T21:00:15.381Z,94834.88
2022-08-28T21:02:42.207Z,94825.72
2022-08-28T21:05:09.448Z,94839.41
2022-08-28T21:07:36.458Z,94836.13
2022-08-28T21:10:07.777Z,94843.09
2022-08-28T21:12:40.094Z,94836.97
2022-08-28T21:15:10.978Z,94834.91
2022-08-28T21:17:37.846Z,94836.34
2022-08-28T21:20:10.789Z,94842.28
2022-08-28T21:22:39.083Z,94834.94
2022-08-28T21:25:08.818Z,94840.66
2022-08-28T21:27:36.725Z,94829.41
2022-08-28T21:30:06.210Z,94832.44
2022-08-28T21:32:34.206Z,94822.66
2022-08-28T21:35:02.427Z,94841.84
2022-08-28T21:37:29.460Z,94830.00
2022-08-28T21:39:59.334Z,94832.25
2022-08-28T21:42:27.041Z,94829.56
2022-08-28T21:44:54.782Z,94835.69
2022-08-28T21:47:23.476Z,94831.78
2022-08-28T21:49:56.244Z,94833.38
2022-08-28T21:52:27.065Z,94844.41
2022-08-28T21:55:02.740Z,94841.97
2022-08-28T21:57:30.436Z,94841.72
2022-08-28T21:59:58.570Z,94836.59
2022-08-28T22:02:26.027Z,94832.09
2022-08-28T22:04:53.857Z,94842.16
2022-08-28T22:07:21.711Z,94843.63
2022-08-28T22:09:48.657Z,94847.47
2022-08-28T22:12:16.518Z,94838.84
2022-08-28T22:14:43.556Z,94835.75
2022-08-28T22:17:11.555Z,94837.59
2022-08-28T22:19:39.622Z,94837.59
2022-08-28T22:22:25.465Z,94827.81
2022-08-28T22:24:53.486Z,94836.19
2022-08-28T22:27:20.335Z,94839.44
2022-08-28T22:29:47.188Z,94844.50
2022-08-28T22:32:14.190Z,94838.56
2022-08-28T22:34:44.975Z,94843.19
2022-08-28T22:37:13.419Z,94847.25
2022-08-28T22:39:41.994Z,94847.69
2022-08-28T22:42:10.019Z,94851.38
2022-08-28T22:44:38.528Z,94842.44
2022-08-28T22:47:06.100Z,94857.31
2022-08-28T22:49:33.146Z,94840.53
2022-08-28T22:51:59.964Z,94850.09
2022-08-28T22:54:27.422Z,94829.16
2022-08-28T22:56:54.220Z,94832.59
2022-08-28T22:59:21.234Z,94849.13
2022-08-28T23:01:48.050Z,94844.00
2022-08-28T23:04:16.065Z,94847.47
2022-08-28T23:06:43.039Z,94835.25
2022-08-28T23:09:09.838Z,94840.13
2022-08-28T23:11:37.701Z,94841.34
2022-08-28T23:14:05.934Z,94849.13
2022-08-28T23:16:35.210Z,94842.16
2022-08-28T23:19:10.340Z,94846.50
2022-08-28T23:21:44.168Z,94829.50
2022-08-28T23:24:19.081Z,94828.84
2022-08-28T23:26:46.513Z,94840.00
2022-08-28T23:29:13.996Z,94842.47
2022-08-28T23:31:41.281Z,94830.81
2022-08-28T23:34:08.197Z,94836.75
2022-08-28T23:36:36.200Z,94828.22
2022-08-28T23:39:05.020Z,94832.91
2022-08-28T23:41:33.201Z,94836.94
2022-08-28T23:44:03.177Z,94838.09
2022-08-28T23:46:32.238Z,94832.19
2022-08-28T23:48:59.627Z,94830.16
2022-08-28T23:51:26.730Z,94844.25
2022-08-28T23:53:53.753Z,94833.81
2022-08-28T23:56:20.618Z,94841.09
2022-08-28T23:58:47.397Z,94845.13
